Denzil, Canada
Current Conditions -  °F | °C
As of 4:00 AM on Friday 24 Oct 2014 (Local Time) from CYKY Reporting Station
Overcast Overcast  
Wind Chill: 34°   Ceiling: 8000
Heat Index: 39°   Visibility: 15mi
Dew Point: 36°   Wind: 8mph
Humidity: 87%   Direction: 270°W
Pressure: 29.62"   Gusts: NA
Location:  52.23°N, 109.65°W
Report Text: CYKY 241000Z 27007KT 15SM BKN080 OVC240 04/02 A2962 RMK AC5CI3 SLP038
Loading
Personal Weather Stations






























Interactive Weather Map New forecast layout! Learn more

10-Day Weather Forecast

Advertisements
Track Severe Weather on mobile